Time;durP1;ratioP1;P1;durP2;ratioP2;P2;SDS_P1;SDS_P2;PMS_P1;PMS_P2;Temp;Humidity;BMP_temperature;BMP_pressure;BME280_temperature;BME280_humidity;BME280_pressure;Samples;Min_cycle;Max_cycle;Signal;HPM_P1;HPM_P2
2022/06/18 00:01:34;;;;;;;1.20;1.10;;;23.10;78.80;;;23.78;53.09;101294.28;5127769;29;20048;-71
2022/06/18 00:04:09;;;;;;;1.40;1.10;;;23.10;79.20;;;23.74;53.19;101292.59;5127558;29;20058;-70
2022/06/18 00:06:50;;;;;;;1.63;1.13;;;23.10;79.20;;;23.69;53.38;101289.97;5127618;29;20053;-70
2022/06/18 00:09:27;;;;;;;1.58;1.20;;;23.00;79.40;;;23.67;54.00;101285.53;5127811;29;20535;-70
2022/06/18 00:15:00;;;;;;;1.20;1.00;;;23.00;79.90;;;23.59;54.14;101287.38;5127426;29;20423;-70
2022/06/18 00:17:32;;;;;;;1.40;1.02;;;22.90;80.30;;;23.54;54.25;101280.34;5127077;29;20051;-70
2022/06/18 00:20:05;;;;;;;1.02;0.98;;;22.80;80.40;;;23.52;54.25;101279.47;5127340;29;20062;-70
2022/06/18 00:22:40;;;;;;;1.70;1.27;;;22.90;80.70;;;23.48;54.00;101272.44;5127001;29;20059;-70
2022/06/18 00:25:20;;;;;;;1.88;1.38;;;22.90;80.30;;;23.45;54.05;101280.44;5126982;29;20138;-70
2022/06/18 00:27:53;;;;;;;1.75;1.20;;;22.80;80.50;;;23.41;54.39;101273.41;5126857;29;20047;-71
2022/06/18 00:30:29;;;;;;;1.80;1.10;;;22.70;80.80;;;23.39;54.20;101275.19;5126949;29;20484;-70
2022/06/18 00:33:01;;;;;;;1.25;1.15;;;22.70;80.80;;;23.36;54.01;101271.69;5126754;29;20063;-70
2022/06/18 00:35:33;;;;;;;1.25;1.15;;;22.70;80.70;;;23.33;54.13;101271.69;5127224;29;20381;-70
2022/06/18 00:38:12;;;;;;;1.63;1.30;;;22.70;80.70;;;23.33;54.20;101279.69;5127291;29;20062;-71
2022/06/18 00:40:45;;;;;;;1.08;0.93;;;22.70;81.00;;;23.32;54.03;101268.16;5127330;29;20051;-70
2022/06/18 00:43:22;;;;;;;1.75;1.30;;;22.60;80.70;;;23.32;53.98;101270.81;5126467;29;20047;-71
2022/06/18 00:45:58;;;;;;;1.33;1.20;;;22.70;80.90;;;23.32;53.51;101270.81;5127077;29;20051;-71
2022/06/18 00:48:39;;;;;;;2.50;1.30;;;22.70;80.40;;;23.32;52.85;101272.59;5126835;29;20423;-70
2022/06/18 00:51:17;;;;;;;1.52;1.27;;;22.70;79.90;;;23.29;52.66;101269.09;5126796;29;20047;-70
2022/06/18 00:53:55;;;;;;;1.95;1.10;;;22.60;79.40;;;23.29;52.62;101268.22;5126905;29;20058;-70
2022/06/18 00:56:33;;;;;;;1.83;1.30;;;22.70;79.40;;;23.28;52.55;101266.44;5126883;29;20054;-70
2022/06/18 00:59:15;;;;;;;2.33;1.13;;;22.60;79.30;;;23.27;52.59;101267.31;5126602;29;20057;-70
2022/06/18 01:01:49;;;;;;;1.50;1.13;;;22.70;79.40;;;23.26;53.09;101262.91;5126643;29;20499;-70
2022/06/18 01:04:26;;;;;;;1.48;1.00;;;22.60;79.70;;;23.24;53.31;101270.03;5126477;29;20051;-70
2022/06/18 01:07:04;;;;;;;2.00;1.20;;;22.60;80.70;;;23.19;53.71;101269.19;5126289;29;20058;-71
2022/06/18 01:09:38;;;;;;;2.47;0.98;;;22.60;81.40;;;23.15;54.09;101278.09;5125892;28;20464;-70
2022/06/18 01:12:11;;;;;;;2.88;1.30;;;22.50;81.20;;;23.07;54.42;101267.50;5125835;29;20058;-70
2022/06/18 01:14:45;;;;;;;3.00;1.20;;;22.50;81.60;;;23.02;54.60;101264.91;5125973;29;20047;-71
2022/06/18 01:17:19;;;;;;;2.13;1.30;;;22.40;82.50;;;22.98;54.46;101264.94;5126236;29;20057;-71
2022/06/18 01:19:52;;;;;;;2.45;1.20;;;22.40;81.80;;;22.96;54.74;101261.44;5126047;29;20058;-70
2022/06/18 01:22:35;;;;;;;1.60;1.20;;;22.30;82.10;;;22.94;54.91;101261.41;5126193;29;20051;-70
2022/06/18 01:25:10;;;;;;;1.45;1.13;;;22.30;82.20;;;22.93;54.77;101258.78;5126109;29;20412;-71
2022/06/18 01:27:42;;;;;;;1.45;1.13;;;22.30;82.10;;;22.91;54.77;101255.28;5126286;29;20047;-71
2022/06/18 01:30:20;;;;;;;1.60;1.33;;;22.30;82.10;;;22.89;54.61;101252.63;5125961;29;20341;-70
2022/06/18 01:32:55;;;;;;;1.52;1.33;;;22.30;82.20;;;22.88;54.87;101252.63;5126004;29;20047;-71
2022/06/18 01:35:28;;;;;;;1.13;1.00;;;22.30;82.40;;;22.86;54.65;101247.31;5126153;29;20054;-71
2022/06/18 01:38:00;;;;;;;4.85;1.33;;;22.30;82.30;;;22.84;54.75;101251.75;5125701;29;20049;-71
2022/06/18 01:40:41;;;;;;;1.55;1.20;;;22.20;82.40;;;22.81;54.94;101243.78;5125863;29;20051;-70
2022/06/18 01:43:18;;;;;;;1.10;1.00;;;22.20;82.50;;;22.77;55.44;101247.38;5125836;29;20055;-70
2022/06/18 01:45:58;;;;;;;1.55;1.05;;;22.20;83.80;;;22.73;56.29;101237.66;5125923;29;20131;-71
2022/06/18 01:48:35;;;;;;;1.25;1.02;;;22.10;84.10;;;22.68;56.93;101240.34;5125714;29;20054;-71
2022/06/18 01:51:12;;;;;;;1.02;0.98;;;22.10;84.90;;;22.64;57.13;101233.31;5125473;29;20057;-72
2022/06/18 01:53:49;;;;;;;1.00;0.80;;;22.00;85.30;;;22.59;57.57;101236.91;5125540;29;20062;-70
2022/06/18 01:56:31;;;;;;;2.30;1.20;;;22.00;85.80;;;22.54;58.20;101228.06;5123100;29;20057;-70
2022/06/18 01:59:06;;;;;;;1.05;0.85;;;22.00;86.60;;;22.48;58.54;101231.66;5124352;29;20499;-70
2022/06/18 02:01:44;;;;;;;1.88;1.10;;;21.90;87.10;;;22.40;58.54;101223.75;5125315;29;20481;-70
2022/06/18 02:04:18;;;;;;;2.17;1.30;;;21.80;87.40;;;22.35;59.12;101225.53;5125609;29;20076;-71
2022/06/18 02:06:51;;;;;;;1.42;1.33;;;21.80;88.10;;;22.29;59.10;101216.72;5125173;29;20066;-70
2022/06/18 02:09:37;;;;;;;1.50;1.23;;;21.70;88.10;;;22.25;58.85;101223.84;5125032;29;20051;-70
2022/06/18 02:12:15;;;;;;;1.23;1.10;;;21.70;88.30;;;22.22;59.14;101221.19;5125738;29;20051;-70
2022/06/18 02:14:54;;;;;;;2.22;1.38;;;21.60;88.60;;;22.18;59.56;101217.69;5125263;29;20055;-70
2022/06/18 02:20:13;;;;;;;1.85;1.23;;;21.50;89.00;;;22.10;59.68;101215.97;5080820;29;20056;-74
2022/06/18 02:22:48;;;;;;;1.58;1.20;;;21.50;89.70;;;22.06;59.93;101209.78;5085815;29;20139;-73
2022/06/18 02:25:24;;;;;;;1.63;1.20;;;21.50;90.00;;;22.04;59.81;101213.31;5085249;29;20051;-73
2022/06/18 02:28:01;;;;;;;1.10;1.00;;;21.40;90.00;;;22.01;60.01;101210.69;5085335;29;20044;-73
2022/06/18 02:30:37;;;;;;;1.42;1.10;;;21.40;90.20;;;21.99;59.86;101204.50;5085018;29;20056;-73
2022/06/18 02:33:28;;;;;;;1.58;1.38;;;21.40;90.20;;;21.97;59.42;101201.84;5085647;29;20114;-73
2022/06/18 02:36:11;;;;;;;3.42;1.10;;;21.40;90.10;;;21.98;59.28;101206.28;5085308;29;20052;-73
2022/06/18 02:38:45;;;;;;;1.30;1.10;;;21.40;90.10;;;21.97;59.82;101201.84;5085390;29;20052;-73
2022/06/18 02:41:17;;;;;;;2.42;1.30;;;21.40;90.40;;;21.94;59.97;101204.53;5085137;29;20052;-74
2022/06/18 02:43:51;;;;;;;1.50;1.10;;;21.40;90.50;;;21.92;60.04;101206.31;5085205;29;20138;-73
2022/06/18 02:46:24;;;;;;;1.83;1.30;;;21.30;90.50;;;21.90;60.18;101202.75;5084885;29;20056;-74
2022/06/18 02:49:00;;;;;;;2.55;1.35;;;21.30;90.70;;;21.89;60.26;101203.66;5085516;29;20056;-73
2022/06/18 02:51:34;;;;;;;1.10;1.00;;;21.30;90.80;;;21.85;59.92;101205.47;5084899;29;20099;-73
2022/06/18 02:54:06;;;;;;;2.40;1.40;;;21.20;91.00;;;21.83;60.33;101209.00;5085551;29;20531;-73
2022/06/18 02:56:39;;;;;;;1.20;1.10;;;21.20;90.90;;;21.78;60.44;101209.03;5084746;29;20058;-73
2022/06/18 02:59:12;;;;;;;1.15;1.05;;;21.20;91.00;;;21.76;60.81;101212.56;5085039;29;20048;-73
2022/06/18 03:01:44;;;;;;;1.90;1.30;;;21.20;91.30;;;21.75;60.55;101219.66;5085020;29;20536;-73
2022/06/18 03:04:16;;;;;;;1.10;1.00;;;21.20;91.20;;;21.75;60.46;101209.03;5085476;29;20079;-74
2022/06/18 03:06:48;;;;;;;1.50;1.00;;;21.20;91.20;;;21.77;59.99;101212.56;5084661;29;20139;-73
2022/06/18 03:09:20;;;;;;;2.03;1.08;;;21.20;91.10;;;21.81;59.36;101219.63;5085367;29;20478;-74
2022/06/18 03:12:06;;;;;;;1.10;1.00;;;21.20;90.80;;;21.85;58.90;101205.47;5085117;29;20048;-73
2022/06/18 03:14:40;;;;;;;1.50;1.10;;;21.30;90.60;;;21.89;58.32;101220.47;5085148;29;20099;-73
2022/06/18 03:17:12;;;;;;;1.13;1.02;;;21.30;90.30;;;21.93;57.84;101222.22;5085095;29;20058;-74
2022/06/18 03:19:50;;;;;;;2.03;0.95;;;21.30;90.00;;;21.96;57.05;101223.97;5084904;29;20052;-74
2022/06/18 03:22:22;;;;;;;1.20;1.10;;;21.40;89.30;;;22.01;56.84;101221.31;5084756;29;20054;-73
2022/06/18 03:24:54;;;;;;;2.13;1.08;;;21.40;88.90;;;22.03;56.66;101230.13;5085163;29;20052;-74
2022/06/18 03:27:26;;;;;;;1.85;1.20;;;21.50;88.60;;;22.05;56.61;101225.72;5084556;29;20055;-74
2022/06/18 03:30:03;;;;;;;2.03;1.20;;;21.50;88.50;;;22.06;56.76;101220.38;5084754;29;20079;-73
2022/06/18 03:32:35;;;;;;;1.13;1.02;;;21.50;88.50;;;22.06;56.62;101215.09;5085182;29;20497;-73
2022/06/18 03:35:08;;;;;;;0.98;0.88;;;21.50;88.40;;;22.07;56.63;101221.28;5087625;29;20054;-73
2022/06/18 03:37:40;;;;;;;2.60;1.10;;;21.50;88.40;;;22.07;56.55;101223.91;5088406;29;20509;-73
2022/06/18 03:40:14;;;;;;;1.98;1.00;;;21.50;88.20;;;22.10;55.96;101227.47;5088730;29;20058;-73
2022/06/18 03:42:46;;;;;;;2.67;1.20;;;21.50;87.50;;;22.13;55.62;101226.59;5088119;29;20134;-73
2022/06/18 03:45:20;;;;;;;1.48;1.20;;;21.60;87.20;;;22.17;55.43;101234.53;5088035;29;20051;-73
2022/06/18 03:47:52;;;;;;;1.98;1.13;;;21.60;86.90;;;22.19;55.51;101231.84;5088022;29;20048;-74
2022/06/18 03:50:24;;;;;;;1.70;1.30;;;21.70;87.00;;;22.21;55.35;101224.75;5088291;29;20191;-73
2022/06/18 03:52:56;;;;;;;1.85;1.55;;;21.70;86.80;;;22.24;55.34;101234.50;5088226;29;20062;-73
2022/06/18 03:55:28;;;;;;;1.63;1.30;;;21.70;86.90;;;22.26;55.28;101225.63;5087832;29;20056;-73
2022/06/18 03:58:00;;;;;;;2.72;1.40;;;21.70;86.70;;;22.26;54.87;101228.28;5088292;29;20397;-73
2022/06/18 04:00:35;;;;;;;1.40;1.30;;;21.70;86.20;;;22.31;54.74;101217.63;5087919;29;20052;-73
2022/06/18 04:03:07;;;;;;;;;;;21.80;85.90;;;22.34;54.57;101221.13;5088770;29;20048;-73
2022/06/18 04:05:42;;;;;;;1.70;1.08;;;21.80;85.70;;;22.37;54.42;101231.75;5087997;29;19923;-73
2022/06/18 04:08:17;;;;;;;1.63;1.02;;;21.80;85.60;;;22.40;54.33;101215.78;5087809;29;20143;-75
2022/06/18 04:10:50;;;;;;;1.67;1.20;;;21.90;85.30;;;22.44;54.11;101221.97;5087830;29;20056;-73
2022/06/18 04:13:22;;;;;;;2.35;1.50;;;21.90;85.00;;;22.47;53.81;101221.91;5087770;29;20051;-74
2022/06/18 04:15:55;;;;;;;1.48;1.30;;;21.90;84.60;;;22.51;53.58;101220.13;5087549;29;20056;-73
2022/06/18 04:18:27;;;;;;;1.30;1.15;;;22.00;84.40;;;22.53;53.36;101221.00;5087638;29;20052;-73
2022/06/18 04:21:00;;;;;;;1.55;1.35;;;22.00;84.00;;;22.58;53.19;101220.06;5087840;29;20055;-73
2022/06/18 04:23:32;;;;;;;2.60;1.48;;;22.10;83.80;;;22.64;52.91;101217.38;5087763;29;20549;-73
2022/06/18 04:26:05;;;;;;;2.42;1.50;;;22.10;83.40;;;22.71;52.78;101218.19;5087687;29;20052;-73
2022/06/18 04:28:37;;;;;;;1.45;1.20;;;22.20;83.10;;;22.77;52.67;101220.81;5087623;29;20194;-74
2022/06/18 04:31:11;;;;;;;1.40;1.13;;;22.20;83.20;;;22.82;52.59;101224.31;5087200;29;20052;-74
2022/06/18 04:33:43;;;;;;;2.08;1.48;;;22.30;82.90;;;22.85;52.29;101213.63;5087394;29;20048;-74
2022/06/18 04:36:32;;;;;;;2.50;1.40;;;22.30;82.60;;;22.90;52.13;101218.94;5087478;29;20078;-74
2022/06/18 04:39:05;;;;;;;2.70;1.50;;;22.30;82.40;;;22.94;52.02;101218.88;5087530;29;20134;-75
2022/06/18 04:41:37;;;;;;;2.30;1.50;;;22.40;82.30;;;22.98;52.14;101214.44;5087226;29;20048;-75
2022/06/18 04:44:10;;;;;;;1.60;1.33;;;22.50;82.20;;;23.01;52.20;101215.28;5087219;29;20056;-74
2022/06/18 04:46:43;;;;;;;2.20;1.80;;;22.50;82.10;;;23.06;51.97;101217.03;5085963;29;20139;-73
2022/06/18 04:49:15;;;;;;;1.67;1.30;;;22.50;81.90;;;23.09;51.78;101211.69;5087272;29;20063;-73
2022/06/18 04:51:47;;;;;;;2.53;1.70;;;22.50;81.80;;;23.15;51.91;101212.50;5087213;29;20482;-73
2022/06/18 04:54:19;;;;;;;2.67;1.63;;;22.60;81.80;;;23.25;51.96;101208.81;5087299;29;20066;-73
2022/06/18 04:56:51;;;;;;;1.70;1.38;;;22.70;81.90;;;23.35;51.76;101212.28;5086923;29;20058;-74
2022/06/18 04:59:23;;;;;;;2.88;1.45;;;22.80;82.40;;;23.48;51.57;101208.59;5087263;29;20131;-73
2022/06/18 05:02:02;;;;;;;2.35;1.60;;;22.90;81.40;;;23.58;51.09;101203.13;5086939;29;20062;-73
2022/06/18 05:04:34;;;;;;;2.92;1.67;;;23.00;81.00;;;23.66;50.97;101210.16;5087237;29;20139;-75
2022/06/18 05:07:07;;;;;;;2.75;1.52;;;23.10;80.60;;;23.74;50.50;101207.41;5086512;29;20145;-74
2022/06/18 05:09:39;;;;;;;2.20;1.48;;;23.10;80.20;;;23.83;50.54;101199.31;5086771;29;20044;-75
2022/06/18 05:12:12;;;;;;;2.58;1.40;;;23.30;80.30;;;23.92;50.50;101201.81;5086708;29;20062;-75
2022/06/18 05:14:44;;;;;;;3.33;1.60;;;23.30;80.10;;;23.99;50.15;101202.63;5086415;29;20063;-75
2022/06/18 05:17:22;;;;;;;2.75;1.58;;;23.40;79.70;;;24.09;nan;101204.25;5086937;29;20059;-74
2022/06/18 05:19:55;;;;;;;2.22;1.63;;;23.50;79.50;;;24.20;49.74;101190.78;5086644;29;20052;-74
2022/06/18 05:22:28;;;;;;;1.60;1.40;;;23.60;79.30;;;24.29;49.55;101190.66;5086389;29;20139;-74
2022/06/18 05:25:00;;;;;;;2.63;1.58;;;23.70;79.10;;;24.45;49.83;101191.31;5086891;29;20141;-75
2022/06/18 05:27:35;;;;;;;2.85;1.70;;;23.80;79.50;;;24.53;49.07;101184.09;5086384;29;20168;-74
2022/06/18 05:30:10;;;;;;;2.03;1.65;;;23.90;79.40;;;24.60;48.93;101186.63;5086231;29;20056;-73
2022/06/18 05:32:44;;;;;;;3.60;1.88;;;23.90;78.20;;;24.68;48.48;101180.28;5086314;29;20052;-74
2022/06/18 05:35:16;;;;;;;2.58;1.63;;;24.00;77.70;;;24.80;48.25;101183.59;5086105;29;20055;-73
2022/06/18 05:37:50;;;;;;;3.75;1.67;;;24.10;77.40;;;24.99;48.13;101191.28;5086401;29;20505;-73
2022/06/18 05:40:22;;;;;;;3.15;2.00;;;24.30;77.20;;;25.07;47.73;101187.59;5086286;29;20471;-73
2022/06/18 05:42:54;;;;;;;1.98;1.50;;;24.40;76.70;;;25.18;47.56;101179.38;5086582;29;20095;-74
2022/06/18 05:45:27;;;;;;;3.38;1.67;;;24.50;76.60;;;25.28;47.46;101180.06;5086007;29;20119;-73
2022/06/18 05:48:00;;;;;;;3.95;1.80;;;24.60;76.20;;;25.35;47.26;101187.03;5086109;29;20058;-74
2022/06/18 05:50:32;;;;;;;3.08;1.55;;;24.70;75.90;;;25.44;47.10;101187.75;5086043;29;20422;-72
2022/06/18 05:53:04;;;;;;;1.63;1.30;;;24.70;75.90;;;25.54;47.04;101188.41;5086286;29;20052;-74
2022/06/18 05:55:37;;;;;;;2.15;1.52;;;24.80;75.60;;;25.50;46.92;101188.53;5086350;29;20055;-74
2022/06/18 05:58:12;;;;;;;3.05;1.52;;;24.80;75.30;;;25.49;46.95;101182.28;5086161;29;20052;-73
2022/06/18 06:00:44;;;;;;;2.30;1.38;;;24.80;75.30;;;25.51;46.93;101184.97;5085844;29;20417;-73
2022/06/18 06:03:17;;;;;;;2.22;1.45;;;24.90;75.40;;;25.56;46.94;101181.28;5086178;29;20139;-72
2022/06/18 06:05:49;;;;;;;1.85;1.33;;;24.90;75.30;;;25.64;47.03;101173.97;5085531;29;20058;-72
2022/06/18 06:08:22;;;;;;;3.20;1.58;;;24.90;75.40;;;25.71;46.95;101170.25;5085931;29;20048;-71
2022/06/18 06:13:43;;;;;;;2.63;1.70;;;25.00;75.00;;;25.82;46.76;101180.75;5085801;29;20155;-72
2022/06/18 06:16:16;;;;;;;2.95;1.63;;;25.10;74.90;;;25.86;46.93;101173.53;5085859;29;20052;-73
2022/06/18 06:18:50;;;;;;;4.68;1.80;;;25.10;75.00;;;25.88;46.87;101177.91;5085530;29;20502;-73
2022/06/18 06:21:22;;;;;;;2.75;1.73;;;25.20;74.90;;;25.94;46.57;101183.13;5085838;29;20412;-72
2022/06/18 06:23:54;;;;;;;3.50;1.63;;;25.20;74.80;;;26.00;46.76;101173.22;5085431;29;20052;-72
2022/06/18 06:26:28;;;;;;;3.17;1.63;;;25.20;75.30;;;26.11;46.59;101168.53;5085703;29;20070;-72
2022/06/18 06:29:01;;;;;;;2.55;1.60;;;25.30;74.80;;;26.18;46.58;101179.03;5085745;29;20592;-72
2022/06/18 06:31:33;;;;;;;2.00;1.55;;;25.40;74.60;;;26.30;46.60;101174.31;5085565;29;20075;-72
2022/06/18 06:34:06;;;;;;;2.00;1.38;;;25.50;74.60;;;26.46;46.06;101179.25;5085390;29;20490;-72
2022/06/18 06:36:38;;;;;;;2.13;1.52;;;25.60;74.60;;;26.58;45.76;101179.88;5085214;29;20066;-72
2022/06/18 06:39:10;;;;;;;3.20;1.73;;;25.70;73.80;;;26.64;45.53;101175.25;5085599;29;20052;-71
2022/06/18 06:41:42;;;;;;;2.58;1.55;;;25.80;73.50;;;26.67;45.66;101176.94;5085690;29;20497;-72
2022/06/18 06:44:14;;;;;;;1.65;1.40;;;25.90;73.50;;;26.79;45.51;101172.16;5085839;29;20052;-72
2022/06/18 06:46:47;;;;;;;2.42;1.33;;;26.00;73.60;;;26.95;45.83;101179.78;5085140;29;20429;-73
2022/06/18 06:49:21;;;;;;;3.38;1.60;;;26.10;74.00;;;27.15;45.67;101177.47;5085331;29;20051;-72
2022/06/18 06:51:53;;;;;;;1.85;1.55;;;26.20;74.20;;;27.31;45.43;101178.78;5085750;29;20067;-72
2022/06/18 06:54:25;;;;;;;3.03;1.70;;;26.30;74.40;;;27.49;44.84;101171.16;5085243;29;20087;-72
2022/06/18 06:59:47;;;;;;;3.70;2.00;;;26.60;72.80;;;27.75;43.94;101167.75;5085530;29;20059;-72
2022/06/18 07:02:21;;;;;;;2.25;1.40;;;26.70;71.80;;;27.85;43.64;101170.09;5085581;29;20449;-73
2022/06/18 07:04:54;;;;;;;;;;;26.90;71.80;;;27.97;43.88;101163.47;5085561;29;20048;-72
2022/06/18 07:07:28;;;;;;;1.95;1.50;;;27.00;71.90;;;28.16;43.45;101169.09;5085656;29;19929;-73
2022/06/18 07:10:00;;;;;;;1.73;1.60;;;27.10;71.50;;;28.39;43.18;101171.09;5088071;29;20048;-72
2022/06/18 07:12:33;;;;;;;1.30;1.20;;;27.30;71.30;;;28.61;42.90;101168.53;5088281;29;20066;-72
2022/06/18 07:15:06;;;;;;;2.03;1.40;;;27.50;71.10;;;28.76;42.26;101161.81;5089134;29;20135;-72
2022/06/18 07:17:38;;;;;;;3.15;1.73;;;27.70;70.70;;;28.80;42.14;101161.63;5088861;29;20052;-72
2022/06/18 07:20:16;;;;;;;1.25;1.13;;;27.70;69.90;;;28.97;42.51;101169.13;5088787;29;20502;-72
2022/06/18 07:22:48;;;;;;;2.15;1.25;;;27.90;70.20;;;29.18;42.42;101165.66;5088545;29;20497;-72
2022/06/18 07:25:20;;;;;;;2.13;1.35;;;28.10;70.70;;;29.29;41.17;101164.41;5089078;29;20455;-72
2022/06/18 07:27:54;;;;;;;1.92;1.27;;;28.20;69.20;;;29.42;41.00;101163.88;5088695;29;20052;-73
2022/06/18 07:30:26;;;;;;;5.47;1.63;;;28.30;68.60;;;29.57;40.67;101164.25;5087055;29;20050;-72
2022/06/18 07:32:59;;;;;;;2.67;1.50;;;28.40;68.20;;;29.69;40.81;101164.66;5088971;29;20479;-73
2022/06/18 07:35:35;;;;;;;2.22;1.45;;;28.50;68.10;;;29.87;40.66;101155.00;5087752;29;20052;-72
2022/06/18 07:38:08;;;;;;;2.55;1.35;;;28.70;68.20;;;30.03;40.44;101167.81;5087784;29;20052;-73
2022/06/18 07:40:44;;;;;;;2.75;1.35;;;28.80;68.20;;;30.24;40.25;101161.59;5088470;29;20048;-73
2022/06/18 07:43:20;;;;;;;2.47;1.42;;;28.90;67.60;;;30.36;39.74;101155.72;5088902;29;20099;-73
2022/06/18 07:45:52;;;;;;;2.10;1.52;;;29.10;67.20;;;30.53;39.29;101158.56;5088299;29;20131;-73
2022/06/18 07:48:24;;;;;;;1.95;1.50;;;29.20;66.80;;;30.69;39.48;101153.44;5088660;29;20386;-73
2022/06/18 07:50:57;;;;;;;1.25;1.15;;;29.40;66.70;;;30.89;38.87;101154.38;5088498;29;20414;-73
2022/06/18 07:53:30;;;;;;;2.67;1.52;;;29.50;66.40;;;31.11;38.75;101143.56;5087545;29;20477;-73
2022/06/18 07:56:02;;;;;;;1.67;1.50;;;29.70;65.90;;;31.30;38.25;101145.38;5088077;29;20055;-73
2022/06/18 07:58:35;;;;;;;2.70;1.60;;;29.80;65.50;;;31.56;37.12;101141.47;5088310;29;20508;-73
2022/06/18 08:01:07;;;;;;;1.58;1.42;;;30.00;64.40;;;31.93;37.45;101134.31;5088089;29;20055;-73
2022/06/18 08:03:39;;;;;;;2.13;1.30;;;30.30;64.90;;;32.32;36.75;101125.19;5088280;29;20505;-73
2022/06/18 08:06:12;;;;;;;1.73;1.33;;;30.50;64.10;;;32.65;36.12;101123.47;5088327;29;20055;-73
2022/06/18 08:08:45;;;;;;;2.60;1.70;;;30.80;63.90;;;33.06;35.22;101124.97;5088065;29;20095;-73
2022/06/18 08:11:20;;;;;;;1.42;1.13;;;31.10;63.10;;;33.48;34.18;101124.50;5087160;29;20058;-73
2022/06/18 08:13:53;;;;;;;1.55;1.10;;;31.30;61.70;;;33.93;34.60;101131.00;5088258;29;20052;-74
2022/06/18 08:16:25;;;;;;;2.55;1.30;;;31.60;62.10;;;34.39;33.45;101128.31;5087833;29;20058;-73
2022/06/18 08:18:57;;;;;;;1.00;1.00;;;31.90;61.30;;;34.87;32.99;101124.47;5087591;29;20421;-74
2022/06/18 08:21:35;;;;;;;1.50;1.40;;;32.30;61.10;;;35.35;31.84;101120.56;5088044;29;20143;-73
2022/06/18 08:24:12;;;;;;;2.72;1.40;;;32.60;60.40;;;35.86;31.15;101115.47;5087802;29;20055;-72
2022/06/18 08:26:45;;;;;;;2.58;1.42;;;32.80;59.30;;;36.37;30.62;101110.25;5087540;29;20130;-73
2022/06/18 08:29:23;;;;;;;2.50;1.27;;;33.20;59.00;;;36.89;29.54;101122.97;5087634;29;20054;-73
2022/06/18 08:31:56;;;;;;;2.78;1.50;;;33.50;58.30;;;37.44;29.15;101110.91;5088061;29;20052;-74
2022/06/18 08:34:28;;;;;;;2.35;1.20;;;33.80;57.60;;;38.11;28.21;101115.03;5087806;29;20052;-73
2022/06/18 08:37:05;;;;;;;2.50;1.40;;;34.10;57.30;;;38.91;27.16;101118.81;5087420;29;20052;-73
2022/06/18 08:39:39;;;;;;;2.88;1.50;;;34.70;56.30;;;39.63;26.48;101120.34;5087616;29;20048;-73
2022/06/18 08:42:32;;;;;;;2.67;1.33;;;35.20;55.50;;;40.23;25.50;101116.22;5086786;29;20140;-74
2022/06/18 08:45:21;;;;;;;2.42;1.10;;;35.80;54.80;;;40.86;24.21;101117.16;5087231;29;20143;-74
2022/06/18 08:48:20;;;;;;;2.92;1.20;;;36.40;52.80;;;41.28;23.57;101117.97;5087414;29;20052;-73
2022/06/18 08:50:58;;;;;;;;;;;37.00;51.80;;;41.54;23.76;101117.50;5087616;29;20478;-74
2022/06/18 08:53:57;;;;;;;2.85;1.50;;;37.40;51.30;;;42.02;23.31;101117.63;5086632;29;20056;-74
2022/06/18 08:56:40;;;;;;;2.83;1.25;;;37.80;51.10;;;42.35;22.89;101116.38;5087007;29;20063;-73
2022/06/18 08:59:28;;;;;;;2.28;1.48;;;38.20;50.90;;;42.64;22.98;101113.59;5087472;29;20044;-74
2022/06/18 09:02:14;;;;;;;1.67;1.30;;;38.40;50.90;;;42.86;22.42;101117.03;5087271;29;20056;-74
2022/06/18 09:04:59;;;;;;;1.88;1.60;;;38.60;49.60;;;43.03;22.19;101108.91;5086806;29;20059;-74
2022/06/18 09:08:07;;;;;;;2.33;1.20;;;38.90;49.30;;;43.09;22.44;101112.94;5087234;29;20052;-74
2022/06/18 09:11:01;;;;;;;3.67;1.60;;;38.90;49.30;;;43.27;22.34;101105.63;5086778;29;20052;-74
2022/06/18 09:13:41;;;;;;;2.35;1.35;;;39.10;49.10;;;43.37;22.14;101111.09;5087151;29;20058;-74
2022/06/18 09:16:19;;;;;;;1.50;1.40;;;39.10;49.10;;;43.45;22.60;101105.72;5086728;29;20584;-74
2022/06/18 09:18:55;;;;;;;3.08;1.50;;;39.30;49.50;;;43.47;22.20;101106.44;5085343;29;20062;-73
2022/06/18 09:21:36;;;;;;;1.98;1.70;;;39.30;48.60;;;43.38;21.81;101101.00;5085218;29;20052;-75
2022/06/18 09:24:10;;;;;;;2.35;1.50;;;39.30;48.00;;;43.17;21.99;101093.88;5085622;29;20055;-74
2022/06/18 09:26:49;;;;;;;1.95;1.40;;;39.30;48.00;;;42.89;22.09;101094.78;5085617;29;20473;-73
2022/06/18 09:29:30;;;;;;;3.13;1.73;;;39.20;48.10;;;42.38;21.99;101079.59;5086749;29;20062;-74
2022/06/18 09:32:07;;;;;;;2.65;1.50;;;39.00;47.60;;;41.88;22.84;101083.31;5086088;29;20052;-73
2022/06/18 09:34:46;;;;;;;2.95;1.70;;;38.80;47.90;;;41.49;23.60;101079.63;5086692;29;20623;-73
2022/06/18 09:37:24;;;;;;;2.63;1.52;;;38.60;48.60;;;41.01;23.61;101085.75;5086422;29;20051;-73
2022/06/18 09:39:59;;;;;;;3.80;1.52;;;38.40;48.00;;;40.36;23.60;101079.53;5086732;29;20490;-73
2022/06/18 09:42:39;;;;;;;3.13;1.60;;;38.10;47.80;;;39.72;24.23;101073.22;5086842;29;20048;-74
2022/06/18 09:45:17;;;;;;;2.33;1.65;;;37.70;48.00;;;39.14;24.85;101069.78;5086303;29;20052;-73
2022/06/18 09:47:50;;;;;;;3.00;1.65;;;37.30;48.20;;;38.72;25.83;101066.75;5085826;29;20056;-73
2022/06/18 09:50:31;;;;;;;4.18;1.83;;;36.90;49.00;;;38.18;26.43;101060.03;5086321;29;20048;-73
2022/06/18 09:53:08;;;;;;;4.63;1.80;;;36.50;49.50;;;37.94;26.79;101057.31;5072501;29;20048;-73
2022/06/18 09:55:45;;;;;;;2.90;1.70;;;36.20;50.00;;;37.81;26.85;101056.50;5085982;29;20066;-73
2022/06/18 09:58:24;;;;;;;3.08;1.92;;;36.10;50.00;;;37.70;27.19;101053.72;5085989;29;20048;-73
2022/06/18 10:00:58;;;;;;;2.80;1.90;;;36.00;50.30;;;37.61;27.01;101048.94;5086190;29;20507;-73
2022/06/18 10:09:20;;;;;;;3.78;1.80;;;35.70;50.40;;;37.38;27.75;101040.66;5066428;29;20053;-74
2022/06/18 10:11:53;;;;;;;3.47;1.80;;;35.70;50.60;;;37.45;27.55;101041.09;5052750;29;20438;-74
2022/06/18 10:14:26;;;;;;;2.35;1.80;;;35.80;50.60;;;37.50;27.26;101030.75;5047263;29;20406;-73
2022/06/18 10:17:08;;;;;;;;;;;35.80;50.10;;;37.45;26.92;101033.78;5047207;29;20053;-73
2022/06/18 10:20:00;;;;;;;4.55;2.10;;;35.80;49.90;;;37.53;26.79;101030.50;5046744;29;19928;-74
2022/06/18 10:22:43;;;;;;;3.03;1.83;;;35.80;49.60;;;37.57;26.58;101025.72;5047282;29;20064;-74
2022/06/18 10:25:29;;;;;;;3.30;1.80;;;35.90;49.30;;;37.54;26.55;101028.66;5000322;29;20057;-74
2022/06/18 10:28:15;;;;;;;5.72;1.88;;;35.90;49.10;;;37.49;27.05;101028.97;5054760;29;20065;-74
2022/06/18 10:30:57;;;;;;;4.45;1.98;;;35.90;49.80;;;37.46;27.16;101021.94;5058347;29;20049;-74
2022/06/18 10:33:52;;;;;;;4.60;1.83;;;35.90;49.90;;;37.50;27.42;101008.13;5046776;29;20140;-74
2022/06/18 10:36:35;;;;;;;5.00;1.75;;;35.90;50.10;;;37.51;27.43;101009.84;5049426;29;20063;-74
2022/06/18 10:39:20;;;;;;;4.25;1.75;;;35.90;50.70;;;37.54;27.11;101009.59;5059087;29;20136;-73
2022/06/18 10:42:15;;;;;;;3.92;1.70;;;35.90;50.00;;;37.58;26.79;101011.13;5066044;29;20441;-74
2022/06/18 10:45:10;;;;;;;2.47;1.70;;;36.00;49.80;;;37.69;26.70;101003.00;5069927;29;20052;-73
2022/06/18 10:47:46;;;;;;;5.25;2.00;;;36.10;49.50;;;37.83;26.97;101004.72;5070302;29;20409;-75
2022/06/18 10:50:21;;;;;;;3.97;2.00;;;36.20;49.90;;;37.85;26.84;100995.47;5069796;29;20048;-73
2022/06/18 10:53:04;;;;;;;3.92;1.75;;;36.20;49.60;;;37.87;26.85;100996.19;5070054;29;20052;-74
2022/06/18 10:55:36;;;;;;;4.45;1.80;;;36.30;49.50;;;37.87;26.48;100996.19;5069840;29;20482;-74
2022/06/18 10:58:12;;;;;;;2.80;1.67;;;36.30;49.20;;;37.90;26.61;100989.69;5069810;29;20459;-74
2022/06/18 11:00:57;;;;;;;5.95;2.22;;;36.30;49.20;;;37.93;26.66;100982.13;5069846;29;20048;-74
2022/06/18 11:03:33;;;;;;;3.25;1.70;;;36.30;49.40;;;37.93;27.01;100984.84;5069777;29;20062;-74
2022/06/18 11:06:13;;;;;;;4.80;1.80;;;36.40;49.70;;;37.90;26.20;100979.66;5069665;29;20384;-74